sensor_id;sensor_type;location;lat;lon;timestamp;P1;durP1;ratioP1;P2;durP2;ratioP2
18228;SDS011;9239;50.932;3.142;2023-03-04T00:02:13;8.03;;;2.53;;
18228;SDS011;9239;50.932;3.142;2023-03-04T00:04:40;8.23;;;2.60;;
18228;SDS011;9239;50.932;3.142;2023-03-04T00:07:07;10.47;;;3.40;;
18228;SDS011;9239;50.932;3.142;2023-03-04T00:09:34;7.90;;;2.70;;
18228;SDS011;9239;50.932;3.142;2023-03-04T00:12:01;7.30;;;2.63;;
18228;SDS011;9239;50.932;3.142;2023-03-04T00:14:28;11.00;;;2.80;;
18228;SDS011;9239;50.932;3.142;2023-03-04T00:16:57;8.00;;;3.00;;
18228;SDS011;9239;50.932;3.142;2023-03-04T00:19:23;9.07;;;2.83;;
18228;SDS011;9239;50.932;3.142;2023-03-04T00:21:50;8.10;;;3.00;;
18228;SDS011;9239;50.932;3.142;2023-03-04T00:24:17;8.83;;;2.80;;
18228;SDS011;9239;50.932;3.142;2023-03-04T00:26:44;10.60;;;2.63;;
18228;SDS011;9239;50.932;3.142;2023-03-04T00:29:11;9.33;;;2.90;;
18228;SDS011;9239;50.932;3.142;2023-03-04T00:31:38;9.57;;;2.90;;
18228;SDS011;9239;50.932;3.142;2023-03-04T00:34:06;13.30;;;3.10;;
18228;SDS011;9239;50.932;3.142;2023-03-04T00:36:33;11.83;;;3.43;;
18228;SDS011;9239;50.932;3.142;2023-03-04T00:38:59;8.97;;;3.50;;
18228;SDS011;9239;50.932;3.142;2023-03-04T00:41:26;9.83;;;3.23;;
18228;SDS011;9239;50.932;3.142;2023-03-04T00:43:53;8.67;;;2.77;;
18228;SDS011;9239;50.932;3.142;2023-03-04T00:46:20;7.87;;;2.60;;
18228;SDS011;9239;50.932;3.142;2023-03-04T00:48:47;14.73;;;3.53;;
18228;SDS011;9239;50.932;3.142;2023-03-04T00:51:15;14.23;;;3.33;;
18228;SDS011;9239;50.932;3.142;2023-03-04T00:53:42;6.10;;;2.67;;
18228;SDS011;9239;50.932;3.142;2023-03-04T00:56:09;7.03;;;2.63;;
18228;SDS011;9239;50.932;3.142;2023-03-04T00:58:35;9.77;;;2.60;;
18228;SDS011;9239;50.932;3.142;2023-03-04T01:01:03;9.37;;;2.70;;
18228;SDS011;9239;50.932;3.142;2023-03-04T01:03:30;11.10;;;2.83;;
18228;SDS011;9239;50.932;3.142;2023-03-04T01:05:57;6.90;;;3.13;;
18228;SDS011;9239;50.932;3.142;2023-03-04T01:08:26;11.83;;;3.73;;
18228;SDS011;9239;50.932;3.142;2023-03-04T01:10:52;8.93;;;2.73;;
18228;SDS011;9239;50.932;3.142;2023-03-04T01:13:19;8.17;;;2.50;;
18228;SDS011;9239;50.932;3.142;2023-03-04T01:15:46;7.40;;;2.50;;
18228;SDS011;9239;50.932;3.142;2023-03-04T01:18:13;5.60;;;2.80;;
18228;SDS011;9239;50.932;3.142;2023-03-04T01:20:40;10.23;;;2.80;;
18228;SDS011;9239;50.932;3.142;2023-03-04T01:23:07;10.67;;;3.57;;
18228;SDS011;9239;50.932;3.142;2023-03-04T01:25:35;10.10;;;2.57;;
18228;SDS011;9239;50.932;3.142;2023-03-04T01:28:02;15.67;;;2.90;;
18228;SDS011;9239;50.932;3.142;2023-03-04T01:30:29;12.57;;;4.00;;
18228;SDS011;9239;50.932;3.142;2023-03-04T01:32:56;7.80;;;2.70;;
18228;SDS011;9239;50.932;3.142;2023-03-04T01:35:23;8.20;;;2.60;;
18228;SDS011;9239;50.932;3.142;2023-03-04T01:37:49;12.33;;;3.23;;
18228;SDS011;9239;50.932;3.142;2023-03-04T01:40:17;8.67;;;3.73;;
18228;SDS011;9239;50.932;3.142;2023-03-04T01:42:45;7.77;;;3.40;;
18228;SDS011;9239;50.932;3.142;2023-03-04T01:45:12;7.90;;;3.07;;
18228;SDS011;9239;50.932;3.142;2023-03-04T01:47:41;7.00;;;3.20;;
18228;SDS011;9239;50.932;3.142;2023-03-04T01:50:15;11.60;;;3.70;;
18228;SDS011;9239;50.932;3.142;2023-03-04T01:52:45;9.00;;;3.67;;
18228;SDS011;9239;50.932;3.142;2023-03-04T01:55:16;10.63;;;3.63;;
18228;SDS011;9239;50.932;3.142;2023-03-04T01:57:46;8.67;;;3.10;;
18228;SDS011;9239;50.932;3.142;2023-03-04T02:00:19;7.57;;;2.67;;
18228;SDS011;9239;50.932;3.142;2023-03-04T02:02:49;11.87;;;3.03;;
18228;SDS011;9239;50.932;3.142;2023-03-04T02:05:18;11.97;;;3.00;;
18228;SDS011;9239;50.932;3.142;2023-03-04T02:07:46;10.20;;;3.10;;
18228;SDS011;9239;50.932;3.142;2023-03-04T02:10:14;9.63;;;2.97;;
18228;SDS011;9239;50.932;3.142;2023-03-04T02:12:41;7.70;;;2.83;;
18228;SDS011;9239;50.932;3.142;2023-03-04T02:15:09;10.77;;;2.93;;
18228;SDS011;9239;50.932;3.142;2023-03-04T02:17:37;9.07;;;2.97;;
18228;SDS011;9239;50.932;3.142;2023-03-04T02:20:06;9.57;;;3.20;;
18228;SDS011;9239;50.932;3.142;2023-03-04T02:22:42;9.97;;;2.73;;
18228;SDS011;9239;50.932;3.142;2023-03-04T02:25:14;8.17;;;2.50;;
18228;SDS011;9239;50.932;3.142;2023-03-04T02:27:47;10.43;;;2.97;;
18228;SDS011;9239;50.932;3.142;2023-03-04T02:30:14;6.10;;;2.73;;
18228;SDS011;9239;50.932;3.142;2023-03-04T02:32:43;5.97;;;2.97;;
18228;SDS011;9239;50.932;3.142;2023-03-04T02:35:13;12.37;;;2.77;;
18228;SDS011;9239;50.932;3.142;2023-03-04T02:37:42;13.17;;;3.93;;
18228;SDS011;9239;50.932;3.142;2023-03-04T02:40:11;11.00;;;3.27;;
18228;SDS011;9239;50.932;3.142;2023-03-04T02:42:42;7.67;;;2.53;;
18228;SDS011;9239;50.932;3.142;2023-03-04T02:48:01;14.37;;;2.97;;
18228;SDS011;9239;50.932;3.142;2023-03-04T02:50:33;10.83;;;2.73;;
18228;SDS011;9239;50.932;3.142;2023-03-04T02:53:01;11.90;;;2.63;;
18228;SDS011;9239;50.932;3.142;2023-03-04T02:55:28;7.83;;;2.53;;
18228;SDS011;9239;50.932;3.142;2023-03-04T02:57:56;6.07;;;2.30;;
18228;SDS011;9239;50.932;3.142;2023-03-04T03:00:23;7.23;;;2.73;;
18228;SDS011;9239;50.932;3.142;2023-03-04T03:02:52;12.00;;;2.70;;
18228;SDS011;9239;50.932;3.142;2023-03-04T03:05:21;12.43;;;2.77;;
18228;SDS011;9239;50.932;3.142;2023-03-04T03:07:48;9.83;;;2.53;;
18228;SDS011;9239;50.932;3.142;2023-03-04T03:10:15;12.00;;;2.80;;
18228;SDS011;9239;50.932;3.142;2023-03-04T03:12:42;9.47;;;2.90;;
18228;SDS011;9239;50.932;3.142;2023-03-04T03:15:09;11.30;;;3.00;;
18228;SDS011;9239;50.932;3.142;2023-03-04T03:17:37;10.57;;;2.83;;
18228;SDS011;9239;50.932;3.142;2023-03-04T03:20:06;14.23;;;2.53;;
18228;SDS011;9239;50.932;3.142;2023-03-04T03:22:40;9.30;;;2.47;;
18228;SDS011;9239;50.932;3.142;2023-03-04T03:25:08;12.37;;;2.60;;
18228;SDS011;9239;50.932;3.142;2023-03-04T03:27:36;8.20;;;3.17;;
18228;SDS011;9239;50.932;3.142;2023-03-04T03:30:03;7.77;;;2.37;;
18228;SDS011;9239;50.932;3.142;2023-03-04T03:32:32;4.57;;;2.37;;
18228;SDS011;9239;50.932;3.142;2023-03-04T03:34:59;9.80;;;2.70;;
18228;SDS011;9239;50.932;3.142;2023-03-04T03:37:27;9.57;;;2.73;;
18228;SDS011;9239;50.932;3.142;2023-03-04T03:39:54;8.03;;;2.13;;
18228;SDS011;9239;50.932;3.142;2023-03-04T03:42:21;7.93;;;2.47;;
18228;SDS011;9239;50.932;3.142;2023-03-04T03:44:48;9.53;;;2.20;;
18228;SDS011;9239;50.932;3.142;2023-03-04T03:47:15;10.43;;;2.10;;
18228;SDS011;9239;50.932;3.142;2023-03-04T03:49:42;7.43;;;2.10;;
18228;SDS011;9239;50.932;3.142;2023-03-04T03:52:09;8.80;;;2.93;;
18228;SDS011;9239;50.932;3.142;2023-03-04T03:54:37;6.87;;;2.70;;
18228;SDS011;9239;50.932;3.142;2023-03-04T03:57:04;7.47;;;2.40;;
18228;SDS011;9239;50.932;3.142;2023-03-04T03:59:31;8.97;;;2.23;;
18228;SDS011;9239;50.932;3.142;2023-03-04T04:01:58;7.83;;;2.37;;
18228;SDS011;9239;50.932;3.142;2023-03-04T04:04:25;7.83;;;2.80;;
18228;SDS011;9239;50.932;3.142;2023-03-04T04:06:52;7.50;;;2.13;;
18228;SDS011;9239;50.932;3.142;2023-03-04T04:09:19;9.93;;;2.67;;
18228;SDS011;9239;50.932;3.142;2023-03-04T04:11:47;6.27;;;2.03;;
18228;SDS011;9239;50.932;3.142;2023-03-04T04:14:14;8.97;;;2.17;;
18228;SDS011;9239;50.932;3.142;2023-03-04T04:16:41;7.10;;;2.23;;
18228;SDS011;9239;50.932;3.142;2023-03-04T04:19:09;7.33;;;2.10;;
18228;SDS011;9239;50.932;3.142;2023-03-04T04:21:41;9.13;;;2.07;;
18228;SDS011;9239;50.932;3.142;2023-03-04T04:24:08;9.80;;;2.23;;
18228;SDS011;9239;50.932;3.142;2023-03-04T04:26:35;9.70;;;2.93;;
18228;SDS011;9239;50.932;3.142;2023-03-04T04:29:03;6.80;;;2.00;;
18228;SDS011;9239;50.932;3.142;2023-03-04T04:31:31;5.97;;;2.50;;
18228;SDS011;9239;50.932;3.142;2023-03-04T04:33:58;8.33;;;2.43;;
18228;SDS011;9239;50.932;3.142;2023-03-04T04:36:25;8.20;;;2.60;;
18228;SDS011;9239;50.932;3.142;2023-03-04T04:38:52;11.60;;;3.00;;
18228;SDS011;9239;50.932;3.142;2023-03-04T04:41:20;13.13;;;2.30;;
18228;SDS011;9239;50.932;3.142;2023-03-04T04:43:49;12.27;;;2.57;;
18228;SDS011;9239;50.932;3.142;2023-03-04T04:46:17;10.43;;;2.50;;
18228;SDS011;9239;50.932;3.142;2023-03-04T04:48:45;6.40;;;2.00;;
18228;SDS011;9239;50.932;3.142;2023-03-04T04:51:12;8.73;;;2.17;;
18228;SDS011;9239;50.932;3.142;2023-03-04T04:53:39;7.03;;;1.80;;
18228;SDS011;9239;50.932;3.142;2023-03-04T04:56:09;6.47;;;2.37;;
18228;SDS011;9239;50.932;3.142;2023-03-04T04:58:37;7.33;;;2.57;;
18228;SDS011;9239;50.932;3.142;2023-03-04T05:01:04;9.27;;;3.00;;
18228;SDS011;9239;50.932;3.142;2023-03-04T05:03:33;7.07;;;2.97;;
18228;SDS011;9239;50.932;3.142;2023-03-04T05:06:01;7.73;;;2.57;;
18228;SDS011;9239;50.932;3.142;2023-03-04T05:08:30;9.40;;;2.70;;
18228;SDS011;9239;50.932;3.142;2023-03-04T05:10:57;10.70;;;2.27;;
18228;SDS011;9239;50.932;3.142;2023-03-04T05:13:24;6.37;;;2.47;;
18228;SDS011;9239;50.932;3.142;2023-03-04T05:15:51;7.43;;;2.50;;
18228;SDS011;9239;50.932;3.142;2023-03-04T05:18:19;5.17;;;2.53;;
18228;SDS011;9239;50.932;3.142;2023-03-04T05:20:50;5.80;;;2.67;;
18228;SDS011;9239;50.932;3.142;2023-03-04T05:23:17;4.97;;;1.87;;
18228;SDS011;9239;50.932;3.142;2023-03-04T05:25:44;9.80;;;2.73;;
18228;SDS011;9239;50.932;3.142;2023-03-04T05:28:11;6.73;;;2.70;;
18228;SDS011;9239;50.932;3.142;2023-03-04T05:30:38;4.50;;;2.53;;
18228;SDS011;9239;50.932;3.142;2023-03-04T05:33:06;6.67;;;2.73;;
18228;SDS011;9239;50.932;3.142;2023-03-04T05:35:34;8.43;;;2.90;;
18228;SDS011;9239;50.932;3.142;2023-03-04T05:38:02;6.87;;;1.97;;
18228;SDS011;9239;50.932;3.142;2023-03-04T05:40:30;6.00;;;2.93;;
18228;SDS011;9239;50.932;3.142;2023-03-04T05:42:57;7.23;;;2.70;;
18228;SDS011;9239;50.932;3.142;2023-03-04T05:45:25;9.23;;;3.03;;
18228;SDS011;9239;50.932;3.142;2023-03-04T05:47:52;9.73;;;3.77;;
18228;SDS011;9239;50.932;3.142;2023-03-04T05:50:20;11.33;;;3.00;;
18228;SDS011;9239;50.932;3.142;2023-03-04T05:52:48;7.63;;;3.17;;
18228;SDS011;9239;50.932;3.142;2023-03-04T05:55:17;6.63;;;2.77;;
18228;SDS011;9239;50.932;3.142;2023-03-04T05:57:44;8.60;;;2.53;;
18228;SDS011;9239;50.932;3.142;2023-03-04T06:00:12;7.77;;;2.60;;
18228;SDS011;9239;50.932;3.142;2023-03-04T06:02:40;6.63;;;2.30;;
18228;SDS011;9239;50.932;3.142;2023-03-04T06:05:08;7.37;;;3.00;;
18228;SDS011;9239;50.932;3.142;2023-03-04T06:07:35;5.20;;;2.40;;
18228;SDS011;9239;50.932;3.142;2023-03-04T06:10:03;4.93;;;2.33;;
18228;SDS011;9239;50.932;3.142;2023-03-04T06:12:32;7.70;;;2.63;;
18228;SDS011;9239;50.932;3.142;2023-03-04T06:14:59;9.77;;;2.77;;
18228;SDS011;9239;50.932;3.142;2023-03-04T06:17:27;10.93;;;3.63;;
18228;SDS011;9239;50.932;3.142;2023-03-04T06:19:54;6.70;;;2.30;;
18228;SDS011;9239;50.932;3.142;2023-03-04T06:22:20;5.47;;;2.37;;
18228;SDS011;9239;50.932;3.142;2023-03-04T06:24:47;7.17;;;2.47;;
18228;SDS011;9239;50.932;3.142;2023-03-04T06:27:14;8.80;;;2.77;;
18228;SDS011;9239;50.932;3.142;2023-03-04T06:29:43;12.03;;;2.70;;
18228;SDS011;9239;50.932;3.142;2023-03-04T06:32:10;7.43;;;3.07;;
18228;SDS011;9239;50.932;3.142;2023-03-04T06:34:37;5.83;;;2.30;;
18228;SDS011;9239;50.932;3.142;2023-03-04T06:37:04;10.40;;;2.80;;
18228;SDS011;9239;50.932;3.142;2023-03-04T06:39:31;8.77;;;2.57;;
18228;SDS011;9239;50.932;3.142;2023-03-04T06:41:57;6.20;;;3.20;;
18228;SDS011;9239;50.932;3.142;2023-03-04T06:44:24;6.73;;;3.13;;
18228;SDS011;9239;50.932;3.142;2023-03-04T06:46:53;7.27;;;2.53;;
18228;SDS011;9239;50.932;3.142;2023-03-04T06:49:20;15.60;;;3.70;;
18228;SDS011;9239;50.932;3.142;2023-03-04T06:51:46;8.33;;;3.20;;
18228;SDS011;9239;50.932;3.142;2023-03-04T06:54:13;9.47;;;3.60;;
18228;SDS011;9239;50.932;3.142;2023-03-04T06:56:40;9.20;;;3.60;;
18228;SDS011;9239;50.932;3.142;2023-03-04T06:59:07;9.80;;;3.17;;
18228;SDS011;9239;50.932;3.142;2023-03-04T07:01:34;7.50;;;3.53;;
18228;SDS011;9239;50.932;3.142;2023-03-04T07:04:03;9.20;;;4.30;;
18228;SDS011;9239;50.932;3.142;2023-03-04T07:06:30;13.73;;;4.07;;
18228;SDS011;9239;50.932;3.142;2023-03-04T07:08:57;11.00;;;3.70;;
18228;SDS011;9239;50.932;3.142;2023-03-04T07:11:24;8.17;;;3.10;;
18228;SDS011;9239;50.932;3.142;2023-03-04T07:13:52;9.13;;;3.13;;
18228;SDS011;9239;50.932;3.142;2023-03-04T07:16:20;7.97;;;3.13;;
18228;SDS011;9239;50.932;3.142;2023-03-04T07:18:48;7.23;;;3.63;;
18228;SDS011;9239;50.932;3.142;2023-03-04T07:21:17;9.27;;;3.93;;
18228;SDS011;9239;50.932;3.142;2023-03-04T07:23:44;7.20;;;2.73;;
18228;SDS011;9239;50.932;3.142;2023-03-04T07:26:11;7.60;;;3.00;;
18228;SDS011;9239;50.932;3.142;2023-03-04T07:28:38;7.40;;;3.77;;
18228;SDS011;9239;50.932;3.142;2023-03-04T07:31:07;8.33;;;3.10;;
18228;SDS011;9239;50.932;3.142;2023-03-04T07:33:36;5.20;;;2.70;;
18228;SDS011;9239;50.932;3.142;2023-03-04T07:36:03;8.90;;;3.17;;
18228;SDS011;9239;50.932;3.142;2023-03-04T07:38:31;8.27;;;2.37;;
18228;SDS011;9239;50.932;3.142;2023-03-04T07:40:58;9.97;;;2.90;;
18228;SDS011;9239;50.932;3.142;2023-03-04T07:43:26;6.23;;;2.70;;
18228;SDS011;9239;50.932;3.142;2023-03-04T07:45:57;5.77;;;2.60;;
18228;SDS011;9239;50.932;3.142;2023-03-04T07:48:25;7.97;;;3.10;;
18228;SDS011;9239;50.932;3.142;2023-03-04T07:51:02;8.77;;;2.57;;
18228;SDS011;9239;50.932;3.142;2023-03-04T07:53:32;8.63;;;3.23;;
18228;SDS011;9239;50.932;3.142;2023-03-04T07:55:59;7.30;;;3.10;;
18228;SDS011;9239;50.932;3.142;2023-03-04T07:58:26;9.77;;;3.30;;
18228;SDS011;9239;50.932;3.142;2023-03-04T08:00:53;11.87;;;3.60;;
18228;SDS011;9239;50.932;3.142;2023-03-04T08:03:20;6.50;;;3.20;;
18228;SDS011;9239;50.932;3.142;2023-03-04T08:05:46;5.77;;;3.03;;
18228;SDS011;9239;50.932;3.142;2023-03-04T08:08:13;12.50;;;4.13;;
18228;SDS011;9239;50.932;3.142;2023-03-04T08:10:42;8.23;;;2.93;;
18228;SDS011;9239;50.932;3.142;2023-03-04T08:13:09;10.83;;;3.90;;
18228;SDS011;9239;50.932;3.142;2023-03-04T08:15:50;9.63;;;3.77;;
18228;SDS011;9239;50.932;3.142;2023-03-04T08:21:31;11.57;;;4.27;;
18228;SDS011;9239;50.932;3.142;2023-03-04T08:24:02;6.67;;;3.37;;
18228;SDS011;9239;50.932;3.142;2023-03-04T08:26:34;9.57;;;3.20;;
18228;SDS011;9239;50.932;3.142;2023-03-04T08:29:05;13.30;;;3.97;;
18228;SDS011;9239;50.932;3.142;2023-03-04T08:31:33;7.57;;;3.30;;
18228;SDS011;9239;50.932;3.142;2023-03-04T08:34:01;9.10;;;3.67;;
18228;SDS011;9239;50.932;3.142;2023-03-04T08:36:28;5.37;;;3.10;;
18228;SDS011;9239;50.932;3.142;2023-03-04T08:38:55;9.23;;;2.90;;
18228;SDS011;9239;50.932;3.142;2023-03-04T08:41:22;8.10;;;4.20;;
18228;SDS011;9239;50.932;3.142;2023-03-04T08:43:51;7.43;;;3.47;;
18228;SDS011;9239;50.932;3.142;2023-03-04T08:46:18;8.93;;;3.17;;
18228;SDS011;9239;50.932;3.142;2023-03-04T08:48:45;10.07;;;3.60;;
18228;SDS011;9239;50.932;3.142;2023-03-04T08:51:12;8.17;;;3.50;;
18228;SDS011;9239;50.932;3.142;2023-03-04T08:53:41;10.93;;;3.30;;
18228;SDS011;9239;50.932;3.142;2023-03-04T08:56:11;8.13;;;3.27;;
18228;SDS011;9239;50.932;3.142;2023-03-04T08:58:39;6.93;;;3.17;;
18228;SDS011;9239;50.932;3.142;2023-03-04T09:01:07;7.00;;;3.40;;
18228;SDS011;9239;50.932;3.142;2023-03-04T09:03:36;11.40;;;3.27;;
18228;SDS011;9239;50.932;3.142;2023-03-04T09:06:04;6.17;;;2.77;;
18228;SDS011;9239;50.932;3.142;2023-03-04T09:08:32;7.50;;;3.93;;
18228;SDS011;9239;50.932;3.142;2023-03-04T09:10:59;10.60;;;4.47;;
18228;SDS011;9239;50.932;3.142;2023-03-04T09:13:27;8.90;;;3.90;;
18228;SDS011;9239;50.932;3.142;2023-03-04T09:15:56;10.33;;;3.90;;
18228;SDS011;9239;50.932;3.142;2023-03-04T09:18:25;8.53;;;3.40;;
18228;SDS011;9239;50.932;3.142;2023-03-04T09:20:52;7.47;;;3.33;;
18228;SDS011;9239;50.932;3.142;2023-03-04T09:23:20;4.40;;;2.90;;
18228;SDS011;9239;50.932;3.142;2023-03-04T09:25:48;7.43;;;3.47;;
18228;SDS011;9239;50.932;3.142;2023-03-04T09:28:15;6.23;;;3.40;;
18228;SDS011;9239;50.932;3.142;2023-03-04T09:30:43;8.80;;;3.93;;
18228;SDS011;9239;50.932;3.142;2023-03-04T09:33:10;6.07;;;3.60;;
18228;SDS011;9239;50.932;3.142;2023-03-04T09:35:39;9.23;;;4.00;;
18228;SDS011;9239;50.932;3.142;2023-03-04T09:38:06;7.80;;;4.20;;
18228;SDS011;9239;50.932;3.142;2023-03-04T09:40:36;10.13;;;3.73;;
18228;SDS011;9239;50.932;3.142;2023-03-04T09:43:05;7.00;;;3.77;;
18228;SDS011;9239;50.932;3.142;2023-03-04T09:45:39;9.27;;;4.23;;
18228;SDS011;9239;50.932;3.142;2023-03-04T09:48:12;6.00;;;3.90;;
18228;SDS011;9239;50.932;3.142;2023-03-04T09:50:44;5.40;;;3.47;;
18228;SDS011;9239;50.932;3.142;2023-03-04T09:53:20;7.77;;;3.40;;
18228;SDS011;9239;50.932;3.142;2023-03-04T09:55:50;8.43;;;3.00;;
18228;SDS011;9239;50.932;3.142;2023-03-04T09:58:25;5.83;;;3.07;;
18228;SDS011;9239;50.932;3.142;2023-03-04T10:00:57;12.20;;;4.00;;
18228;SDS011;9239;50.932;3.142;2023-03-04T10:03:30;6.53;;;2.67;;
18228;SDS011;9239;50.932;3.142;2023-03-04T10:06:08;5.00;;;2.70;;
18228;SDS011;9239;50.932;3.142;2023-03-04T10:08:39;7.07;;;2.57;;
18228;SDS011;9239;50.932;3.142;2023-03-04T10:11:12;4.77;;;2.63;;
18228;SDS011;9239;50.932;3.142;2023-03-04T10:13:49;3.20;;;2.13;;
18228;SDS011;9239;50.932;3.142;2023-03-04T10:16:22;7.80;;;1.80;;
18228;SDS011;9239;50.932;3.142;2023-03-04T10:18:52;3.60;;;2.33;;
18228;SDS011;9239;50.932;3.142;2023-03-04T10:21:28;6.67;;;1.57;;
18228;SDS011;9239;50.932;3.142;2023-03-04T10:23:57;3.97;;;1.60;;
18228;SDS011;9239;50.932;3.142;2023-03-04T10:26:33;5.67;;;3.60;;
18228;SDS011;9239;50.932;3.142;2023-03-04T10:28:59;5.23;;;2.23;;
18228;SDS011;9239;50.932;3.142;2023-03-04T10:31:31;3.17;;;1.70;;
18228;SDS011;9239;50.932;3.142;2023-03-04T10:34:02;5.13;;;1.97;;
18228;SDS011;9239;50.932;3.142;2023-03-04T10:36:37;2.60;;;1.57;;
18228;SDS011;9239;50.932;3.142;2023-03-04T10:39:16;5.27;;;1.57;;
18228;SDS011;9239;50.932;3.142;2023-03-04T10:41:45;1.83;;;1.70;;
18228;SDS011;9239;50.932;3.142;2023-03-04T10:44:22;5.23;;;2.10;;
18228;SDS011;9239;50.932;3.142;2023-03-04T10:46:50;7.13;;;2.03;;
18228;SDS011;9239;50.932;3.142;2023-03-04T10:49:19;4.20;;;1.80;;
18228;SDS011;9239;50.932;3.142;2023-03-04T10:51:50;3.57;;;1.80;;
18228;SDS011;9239;50.932;3.142;2023-03-04T10:54:23;8.03;;;2.70;;
18228;SDS011;9239;50.932;3.142;2023-03-04T10:56:54;3.77;;;1.90;;
18228;SDS011;9239;50.932;3.142;2023-03-04T10:59:30;2.47;;;1.60;;
18228;SDS011;9239;50.932;3.142;2023-03-04T11:02:05;4.33;;;2.27;;
18228;SDS011;9239;50.932;3.142;2023-03-04T11:04:40;5.80;;;2.23;;
18228;SDS011;9239;50.932;3.142;2023-03-04T11:07:09;4.43;;;2.07;;
18228;SDS011;9239;50.932;3.142;2023-03-04T11:09:37;5.47;;;1.93;;
18228;SDS011;9239;50.932;3.142;2023-03-04T11:12:09;5.03;;;2.33;;
18228;SDS011;9239;50.932;3.142;2023-03-04T11:14:37;5.97;;;2.93;;
18228;SDS011;9239;50.932;3.142;2023-03-04T11:17:15;4.93;;;1.90;;
18228;SDS011;9239;50.932;3.142;2023-03-04T11:19:46;6.73;;;1.83;;
18228;SDS011;9239;50.932;3.142;2023-03-04T11:22:17;4.40;;;2.17;;
18228;SDS011;9239;50.932;3.142;2023-03-04T11:24:47;6.87;;;1.57;;
18228;SDS011;9239;50.932;3.142;2023-03-04T11:27:23;4.70;;;1.93;;
18228;SDS011;9239;50.932;3.142;2023-03-04T11:29:57;4.03;;;1.50;;
18228;SDS011;9239;50.932;3.142;2023-03-04T11:32:29;4.70;;;1.70;;
18228;SDS011;9239;50.932;3.142;2023-03-04T11:35:04;4.50;;;1.75;;
18228;SDS011;9239;50.932;3.142;2023-03-04T11:37:43;3.23;;;1.40;;
18228;SDS011;9239;50.932;3.142;2023-03-04T11:40:17;5.33;;;1.80;;
18228;SDS011;9239;50.932;3.142;2023-03-04T11:42:51;2.87;;;2.13;;
18228;SDS011;9239;50.932;3.142;2023-03-04T11:45:23;3.90;;;1.90;;
18228;SDS011;9239;50.932;3.142;2023-03-04T11:47:59;4.10;;;1.87;;
18228;SDS011;9239;50.932;3.142;2023-03-04T11:50:34;4.07;;;2.50;;
18228;SDS011;9239;50.932;3.142;2023-03-04T11:53:15;4.87;;;1.77;;
18228;SDS011;9239;50.932;3.142;2023-03-04T11:55:57;3.80;;;1.63;;
18228;SDS011;9239;50.932;3.142;2023-03-04T11:58:43;2.70;;;1.30;;
18228;SDS011;9239;50.932;3.142;2023-03-04T12:01:27;3.97;;;1.90;;
18228;SDS011;9239;50.932;3.142;2023-03-04T12:04:06;2.87;;;1.50;;
18228;SDS011;9239;50.932;3.142;2023-03-04T12:06:51;3.40;;;1.17;;
18228;SDS011;9239;50.932;3.142;2023-03-04T12:09:32;3.40;;;1.77;;
18228;SDS011;9239;50.932;3.142;2023-03-04T12:12:26;9.10;;;1.70;;
18228;SDS011;9239;50.932;3.142;2023-03-04T12:15:09;0.80;;;0.70;;
18228;SDS011;9239;50.932;3.142;2023-03-04T12:17:57;2.60;;;0.90;;
18228;SDS011;9239;50.932;3.142;2023-03-04T12:20:43;1.50;;;0.90;;
18228;SDS011;9239;50.932;3.142;2023-03-04T12:23:34;5.23;;;1.30;;
18228;SDS011;9239;50.932;3.142;2023-03-04T12:26:19;2.87;;;1.50;;
18228;SDS011;9239;50.932;3.142;2023-03-04T12:28:52;2.40;;;1.03;;
18228;SDS011;9239;50.932;3.142;2023-03-04T12:31:32;2.17;;;1.30;;
18228;SDS011;9239;50.932;3.142;2023-03-04T12:34:08;1.47;;;0.90;;
18228;SDS011;9239;50.932;3.142;2023-03-04T12:37:00;1.00;;;0.83;;
18228;SDS011;9239;50.932;3.142;2023-03-04T12:39:36;2.60;;;1.40;;
18228;SDS011;9239;50.932;3.142;2023-03-04T12:42:11;2.90;;;1.00;;
18228;SDS011;9239;50.932;3.142;2023-03-04T12:44:49;1.80;;;1.00;;
18228;SDS011;9239;50.932;3.142;2023-03-04T12:47:24;0.97;;;0.90;;
18228;SDS011;9239;50.932;3.142;2023-03-04T12:50:12;8.27;;;0.87;;
18228;SDS011;9239;50.932;3.142;2023-03-04T12:52:52;1.80;;;1.70;;
18228;SDS011;9239;50.932;3.142;2023-03-04T12:55:29;3.23;;;1.00;;
18228;SDS011;9239;50.932;3.142;2023-03-04T12:58:03;0.90;;;0.70;;
18228;SDS011;9239;50.932;3.142;2023-03-04T13:00:38;2.43;;;2.20;;
18228;SDS011;9239;50.932;3.142;2023-03-04T13:03:14;1.43;;;0.90;;
18228;SDS011;9239;50.932;3.142;2023-03-04T13:05:59;2.30;;;0.67;;
18228;SDS011;9239;50.932;3.142;2023-03-04T13:08:36;3.63;;;1.00;;
18228;SDS011;9239;50.932;3.142;2023-03-04T13:11:37;1.57;;;1.17;;
18228;SDS011;9239;50.932;3.142;2023-03-04T13:14:26;1.80;;;0.70;;
18228;SDS011;9239;50.932;3.142;2023-03-04T13:20:10;2.30;;;0.90;;
18228;SDS011;9239;50.932;3.142;2023-03-04T13:22:54;1.90;;;1.00;;
18228;SDS011;9239;50.932;3.142;2023-03-04T13:28:18;2.10;;;1.17;;
18228;SDS011;9239;50.932;3.142;2023-03-04T13:33:58;1.20;;;0.90;;
18228;SDS011;9239;50.932;3.142;2023-03-04T13:36:28;1.20;;;1.10;;
18228;SDS011;9239;50.932;3.142;2023-03-04T13:38:57;0.70;;;0.70;;
18228;SDS011;9239;50.932;3.142;2023-03-04T13:41:29;2.50;;;1.00;;
18228;SDS011;9239;50.932;3.142;2023-03-04T13:43:58;1.03;;;1.00;;
18228;SDS011;9239;50.932;3.142;2023-03-04T13:46:37;0.60;;;0.50;;
18228;SDS011;9239;50.932;3.142;2023-03-04T13:49:07;0.83;;;0.80;;
18228;SDS011;9239;50.932;3.142;2023-03-04T13:51:45;0.70;;;0.60;;
18228;SDS011;9239;50.932;3.142;2023-03-04T13:54:13;0.60;;;0.60;;
18228;SDS011;9239;50.932;3.142;2023-03-04T13:56:41;1.23;;;0.50;;
18228;SDS011;9239;50.932;3.142;2023-03-04T13:59:13;1.83;;;1.00;;
18228;SDS011;9239;50.932;3.142;2023-03-04T14:04:41;1.73;;;0.60;;
18228;SDS011;9239;50.932;3.142;2023-03-04T14:07:20;0.87;;;0.83;;
18228;SDS011;9239;50.932;3.142;2023-03-04T14:09:54;0.90;;;0.90;;
18228;SDS011;9239;50.932;3.142;2023-03-04T14:12:23;1.30;;;0.80;;
18228;SDS011;9239;50.932;3.142;2023-03-04T14:14:53;1.43;;;1.10;;
18228;SDS011;9239;50.932;3.142;2023-03-04T14:17:24;5.13;;;1.60;;
18228;SDS011;9239;50.932;3.142;2023-03-04T14:19:53;2.23;;;1.50;;
18228;SDS011;9239;50.932;3.142;2023-03-04T14:22:21;1.93;;;1.50;;
18228;SDS011;9239;50.932;3.142;2023-03-04T14:24:57;2.00;;;1.10;;
18228;SDS011;9239;50.932;3.142;2023-03-04T14:27:26;1.97;;;1.23;;
18228;SDS011;9239;50.932;3.142;2023-03-04T14:29:56;1.73;;;1.20;;
18228;SDS011;9239;50.932;3.142;2023-03-04T14:32:26;1.40;;;0.90;;
18228;SDS011;9239;50.932;3.142;2023-03-04T14:34:55;1.37;;;0.80;;
18228;SDS011;9239;50.932;3.142;2023-03-04T14:37:24;0.93;;;0.50;;
18228;SDS011;9239;50.932;3.142;2023-03-04T14:39:56;1.60;;;0.60;;
18228;SDS011;9239;50.932;3.142;2023-03-04T14:42:26;0.87;;;0.80;;
18228;SDS011;9239;50.932;3.142;2023-03-04T14:44:59;1.23;;;0.93;;
18228;SDS011;9239;50.932;3.142;2023-03-04T14:47:30;2.13;;;0.90;;
18228;SDS011;9239;50.932;3.142;2023-03-04T14:50:03;1.97;;;1.00;;
18228;SDS011;9239;50.932;3.142;2023-03-04T14:52:33;2.27;;;1.10;;
18228;SDS011;9239;50.932;3.142;2023-03-04T14:55:08;2.37;;;1.67;;
18228;SDS011;9239;50.932;3.142;2023-03-04T14:57:47;1.40;;;1.30;;
18228;SDS011;9239;50.932;3.142;2023-03-04T15:00:26;2.33;;;2.10;;
18228;SDS011;9239;50.932;3.142;2023-03-04T15:02:56;2.50;;;1.30;;
18228;SDS011;9239;50.932;3.142;2023-03-04T15:05:26;2.43;;;1.87;;
18228;SDS011;9239;50.932;3.142;2023-03-04T15:07:54;2.07;;;1.53;;
18228;SDS011;9239;50.932;3.142;2023-03-04T15:10:23;3.03;;;2.07;;
18228;SDS011;9239;50.932;3.142;2023-03-04T15:12:52;2.70;;;2.00;;
18228;SDS011;9239;50.932;3.142;2023-03-04T15:15:31;3.50;;;1.80;;
18228;SDS011;9239;50.932;3.142;2023-03-04T15:18:02;4.50;;;1.53;;
18228;SDS011;9239;50.932;3.142;2023-03-04T15:20:39;4.73;;;2.10;;
18228;SDS011;9239;50.932;3.142;2023-03-04T15:23:06;1.97;;;1.70;;
18228;SDS011;9239;50.932;3.142;2023-03-04T15:25:38;5.67;;;2.13;;
18228;SDS011;9239;50.932;3.142;2023-03-04T15:28:05;2.50;;;1.40;;
18228;SDS011;9239;50.932;3.142;2023-03-04T15:30:41;3.93;;;1.30;;
18228;SDS011;9239;50.932;3.142;2023-03-04T15:33:10;2.73;;;1.57;;
18228;SDS011;9239;50.932;3.142;2023-03-04T15:35:39;4.30;;;2.60;;
18228;SDS011;9239;50.932;3.142;2023-03-04T15:38:07;3.53;;;2.07;;